sensor_id;sensor_type;location;lat;lon;timestamp;temperature;humidity
24518;DHT22;12678;51.336;12.406;2023-07-31T00:02:12;21.00;99.90
24518;DHT22;12678;51.336;12.406;2023-07-31T00:04:38;20.90;99.90
24518;DHT22;12678;51.336;12.406;2023-07-31T00:07:04;20.90;99.90
24518;DHT22;12678;51.336;12.406;2023-07-31T00:09:34;20.80;99.90
24518;DHT22;12678;51.336;12.406;2023-07-31T00:12:00;20.90;99.90
24518;DHT22;12678;51.336;12.406;2023-07-31T00:14:26;21.00;99.90
24518;DHT22;12678;51.336;12.406;2023-07-31T00:16:51;21.00;99.90
24518;DHT22;12678;51.336;12.406;2023-07-31T00:19:17;21.00;99.90
24518;DHT22;12678;51.336;12.406;2023-07-31T00:21:44;21.00;99.90
24518;DHT22;12678;51.336;12.406;2023-07-31T00:24:09;20.90;99.90
24518;DHT22;12678;51.336;12.406;2023-07-31T00:26:35;20.80;99.90
24518;DHT22;12678;51.336;12.406;2023-07-31T00:29:00;20.80;99.90
24518;DHT22;12678;51.336;12.406;2023-07-31T00:31:26;20.80;99.90
24518;DHT22;12678;51.336;12.406;2023-07-31T00:33:52;20.90;99.90
24518;DHT22;12678;51.336;12.406;2023-07-31T00:36:17;20.90;99.90
24518;DHT22;12678;51.336;12.406;2023-07-31T00:38:43;20.80;99.90
24518;DHT22;12678;51.336;12.406;2023-07-31T00:41:09;20.80;99.90
24518;DHT22;12678;51.336;12.406;2023-07-31T00:43:35;20.90;99.90
24518;DHT22;12678;51.336;12.406;2023-07-31T00:46:00;20.90;99.90
24518;DHT22;12678;51.336;12.406;2023-07-31T00:48:26;20.90;99.90
24518;DHT22;12678;51.336;12.406;2023-07-31T00:50:52;20.90;99.90
24518;DHT22;12678;51.336;12.406;2023-07-31T00:53:17;20.80;99.90
24518;DHT22;12678;51.336;12.406;2023-07-31T00:55:44;20.90;99.90
24518;DHT22;12678;51.336;12.406;2023-07-31T00:58:09;21.00;99.90
24518;DHT22;12678;51.336;12.406;2023-07-31T01:00:35;21.00;99.90
24518;DHT22;12678;51.336;12.406;2023-07-31T01:03:01;20.90;99.90
24518;DHT22;12678;51.336;12.406;2023-07-31T01:05:59;20.90;99.90
24518;DHT22;12678;51.336;12.406;2023-07-31T01:11:28;20.90;99.90
24518;DHT22;12678;51.336;12.406;2023-07-31T01:13:55;20.90;99.90
24518;DHT22;12678;51.336;12.406;2023-07-31T01:16:21;20.90;99.90
24518;DHT22;12678;51.336;12.406;2023-07-31T01:18:46;20.90;99.90
24518;DHT22;12678;51.336;12.406;2023-07-31T01:24:31;20.80;99.90
24518;DHT22;12678;51.336;12.406;2023-07-31T01:27:12;20.80;99.90
24518;DHT22;12678;51.336;12.406;2023-07-31T01:29:47;20.90;99.90
24518;DHT22;12678;51.336;12.406;2023-07-31T01:32:14;20.80;99.90
24518;DHT22;12678;51.336;12.406;2023-07-31T01:34:43;20.80;99.90
24518;DHT22;12678;51.336;12.406;2023-07-31T01:37:09;20.90;99.90
24518;DHT22;12678;51.336;12.406;2023-07-31T01:39:35;20.80;99.90
24518;DHT22;12678;51.336;12.406;2023-07-31T01:42:00;20.80;99.90
24518;DHT22;12678;51.336;12.406;2023-07-31T01:44:26;20.80;99.90
24518;DHT22;12678;51.336;12.406;2023-07-31T01:46:51;20.80;99.90
24518;DHT22;12678;51.336;12.406;2023-07-31T01:49:17;20.80;99.90
24518;DHT22;12678;51.336;12.406;2023-07-31T01:51:42;20.70;99.90
24518;DHT22;12678;51.336;12.406;2023-07-31T01:54:08;20.60;99.90
24518;DHT22;12678;51.336;12.406;2023-07-31T01:56:33;20.60;99.90
24518;DHT22;12678;51.336;12.406;2023-07-31T01:58:59;20.70;99.90
24518;DHT22;12678;51.336;12.406;2023-07-31T02:01:24;20.50;99.90
24518;DHT22;12678;51.336;12.406;2023-07-31T02:03:50;20.40;99.90
24518;DHT22;12678;51.336;12.406;2023-07-31T02:06:16;20.40;99.90
24518;DHT22;12678;51.336;12.406;2023-07-31T02:08:41;20.50;99.90
24518;DHT22;12678;51.336;12.406;2023-07-31T02:11:07;20.50;99.90
24518;DHT22;12678;51.336;12.406;2023-07-31T02:13:32;20.50;99.90
24518;DHT22;12678;51.336;12.406;2023-07-31T02:15:58;20.60;99.90
24518;DHT22;12678;51.336;12.406;2023-07-31T02:18:23;20.60;99.90
24518;DHT22;12678;51.336;12.406;2023-07-31T02:20:50;20.70;99.90
24518;DHT22;12678;51.336;12.406;2023-07-31T02:23:17;20.60;99.90
24518;DHT22;12678;51.336;12.406;2023-07-31T02:25:43;20.60;99.90
24518;DHT22;12678;51.336;12.406;2023-07-31T02:28:08;20.70;99.90
24518;DHT22;12678;51.336;12.406;2023-07-31T02:30:34;20.50;99.90
24518;DHT22;12678;51.336;12.406;2023-07-31T02:32:59;20.50;99.90
24518;DHT22;12678;51.336;12.406;2023-07-31T02:35:25;20.50;99.90
24518;DHT22;12678;51.336;12.406;2023-07-31T02:37:50;20.40;99.90
24518;DHT22;12678;51.336;12.406;2023-07-31T02:40:16;20.50;99.90
24518;DHT22;12678;51.336;12.406;2023-07-31T02:42:41;20.60;99.90
24518;DHT22;12678;51.336;12.406;2023-07-31T02:45:07;20.60;99.90
24518;DHT22;12678;51.336;12.406;2023-07-31T02:47:33;20.70;99.90
24518;DHT22;12678;51.336;12.406;2023-07-31T02:49:59;20.70;99.90
24518;DHT22;12678;51.336;12.406;2023-07-31T02:52:25;20.70;99.90
24518;DHT22;12678;51.336;12.406;2023-07-31T02:54:50;20.70;99.90
24518;DHT22;12678;51.336;12.406;2023-07-31T02:57:16;20.70;99.90
24518;DHT22;12678;51.336;12.406;2023-07-31T02:59:41;20.70;99.90
24518;DHT22;12678;51.336;12.406;2023-07-31T03:02:07;20.70;99.90
24518;DHT22;12678;51.336;12.406;2023-07-31T03:04:32;20.60;99.90
24518;DHT22;12678;51.336;12.406;2023-07-31T03:06:58;20.70;99.90
24518;DHT22;12678;51.336;12.406;2023-07-31T03:09:24;20.60;99.90
24518;DHT22;12678;51.336;12.406;2023-07-31T03:11:49;20.60;99.90
24518;DHT22;12678;51.336;12.406;2023-07-31T03:14:15;20.60;99.90
24518;DHT22;12678;51.336;12.406;2023-07-31T03:16:40;20.70;99.90
24518;DHT22;12678;51.336;12.406;2023-07-31T03:19:06;20.70;99.90
24518;DHT22;12678;51.336;12.406;2023-07-31T03:21:31;20.70;99.90
24518;DHT22;12678;51.336;12.406;2023-07-31T03:23:57;20.70;99.90
24518;DHT22;12678;51.336;12.406;2023-07-31T03:26:22;20.60;99.90
24518;DHT22;12678;51.336;12.406;2023-07-31T03:28:48;20.60;99.90
24518;DHT22;12678;51.336;12.406;2023-07-31T03:31:14;20.70;99.90
24518;DHT22;12678;51.336;12.406;2023-07-31T03:33:40;20.70;99.90
24518;DHT22;12678;51.336;12.406;2023-07-31T03:36:05;20.80;99.90
24518;DHT22;12678;51.336;12.406;2023-07-31T03:38:31;20.70;99.90
24518;DHT22;12678;51.336;12.406;2023-07-31T03:40:56;20.80;99.90
24518;DHT22;12678;51.336;12.406;2023-07-31T03:43:24;20.70;99.90
24518;DHT22;12678;51.336;12.406;2023-07-31T03:45:50;20.70;99.90
24518;DHT22;12678;51.336;12.406;2023-07-31T03:48:16;20.70;99.90
24518;DHT22;12678;51.336;12.406;2023-07-31T03:50:41;20.50;99.90
24518;DHT22;12678;51.336;12.406;2023-07-31T03:53:07;20.50;99.90
24518;DHT22;12678;51.336;12.406;2023-07-31T03:55:33;20.60;99.90
24518;DHT22;12678;51.336;12.406;2023-07-31T03:57:58;20.60;99.90
24518;DHT22;12678;51.336;12.406;2023-07-31T04:00:26;20.60;99.90
24518;DHT22;12678;51.336;12.406;2023-07-31T04:02:52;20.50;99.90
24518;DHT22;12678;51.336;12.406;2023-07-31T04:05:18;20.50;99.90
24518;DHT22;12678;51.336;12.406;2023-07-31T04:07:43;20.50;99.90
24518;DHT22;12678;51.336;12.406;2023-07-31T04:10:09;20.60;99.90
24518;DHT22;12678;51.336;12.406;2023-07-31T04:12:34;20.60;99.90
24518;DHT22;12678;51.336;12.406;2023-07-31T04:15:00;20.60;99.90
24518;DHT22;12678;51.336;12.406;2023-07-31T04:17:26;20.40;99.90
24518;DHT22;12678;51.336;12.406;2023-07-31T04:19:51;20.60;99.90
24518;DHT22;12678;51.336;12.406;2023-07-31T04:22:17;20.40;99.90
24518;DHT22;12678;51.336;12.406;2023-07-31T04:24:42;20.50;99.90
24518;DHT22;12678;51.336;12.406;2023-07-31T04:27:08;20.50;99.90
24518;DHT22;12678;51.336;12.406;2023-07-31T04:29:34;20.50;99.90
24518;DHT22;12678;51.336;12.406;2023-07-31T04:31:59;20.50;99.90
24518;DHT22;12678;51.336;12.406;2023-07-31T04:34:25;20.40;99.90
24518;DHT22;12678;51.336;12.406;2023-07-31T04:36:50;20.50;99.90
24518;DHT22;12678;51.336;12.406;2023-07-31T04:39:16;20.60;99.90
24518;DHT22;12678;51.336;12.406;2023-07-31T04:41:41;20.40;99.90
24518;DHT22;12678;51.336;12.406;2023-07-31T04:44:07;20.40;99.90
24518;DHT22;12678;51.336;12.406;2023-07-31T04:46:32;20.50;99.90
24518;DHT22;12678;51.336;12.406;2023-07-31T04:48:58;20.50;99.90
24518;DHT22;12678;51.336;12.406;2023-07-31T04:51:23;20.40;99.90
24518;DHT22;12678;51.336;12.406;2023-07-31T04:53:50;20.30;99.90
24518;DHT22;12678;51.336;12.406;2023-07-31T04:56:16;20.30;99.90
24518;DHT22;12678;51.336;12.406;2023-07-31T04:58:41;20.10;99.90
24518;DHT22;12678;51.336;12.406;2023-07-31T05:01:07;20.00;99.90
24518;DHT22;12678;51.336;12.406;2023-07-31T05:03:32;19.80;99.90
24518;DHT22;12678;51.336;12.406;2023-07-31T05:05:58;19.70;99.90
24518;DHT22;12678;51.336;12.406;2023-07-31T05:08:24;19.70;99.90
24518;DHT22;12678;51.336;12.406;2023-07-31T05:10:50;19.50;99.90
24518;DHT22;12678;51.336;12.406;2023-07-31T05:13:15;19.40;99.90
24518;DHT22;12678;51.336;12.406;2023-07-31T05:15:41;19.50;99.90
24518;DHT22;12678;51.336;12.406;2023-07-31T05:18:07;19.60;99.90
24518;DHT22;12678;51.336;12.406;2023-07-31T05:20:32;19.70;99.90
24518;DHT22;12678;51.336;12.406;2023-07-31T05:22:58;19.60;99.90
24518;DHT22;12678;51.336;12.406;2023-07-31T05:25:23;19.60;99.90
24518;DHT22;12678;51.336;12.406;2023-07-31T05:27:49;19.60;99.90
24518;DHT22;12678;51.336;12.406;2023-07-31T05:30:14;19.50;99.90
24518;DHT22;12678;51.336;12.406;2023-07-31T05:32:40;18.90;99.90
24518;DHT22;12678;51.336;12.406;2023-07-31T05:35:06;18.70;99.90
24518;DHT22;12678;51.336;12.406;2023-07-31T05:37:31;18.30;99.90
24518;DHT22;12678;51.336;12.406;2023-07-31T05:39:57;17.90;99.90
24518;DHT22;12678;51.336;12.406;2023-07-31T05:42:22;17.90;99.90
24518;DHT22;12678;51.336;12.406;2023-07-31T05:44:48;17.70;99.90
24518;DHT22;12678;51.336;12.406;2023-07-31T05:47:14;17.70;99.90
24518;DHT22;12678;51.336;12.406;2023-07-31T05:49:39;17.50;99.90
24518;DHT22;12678;51.336;12.406;2023-07-31T05:52:05;17.40;99.90
24518;DHT22;12678;51.336;12.406;2023-07-31T05:54:31;17.40;99.90
24518;DHT22;12678;51.336;12.406;2023-07-31T05:56:57;17.50;99.90
24518;DHT22;12678;51.336;12.406;2023-07-31T05:59:23;17.50;99.90
24518;DHT22;12678;51.336;12.406;2023-07-31T06:01:48;17.50;99.90
24518;DHT22;12678;51.336;12.406;2023-07-31T06:04:14;17.60;99.90
24518;DHT22;12678;51.336;12.406;2023-07-31T06:06:39;17.80;99.90
24518;DHT22;12678;51.336;12.406;2023-07-31T06:09:05;17.90;99.90
24518;DHT22;12678;51.336;12.406;2023-07-31T06:11:31;17.90;99.90
24518;DHT22;12678;51.336;12.406;2023-07-31T06:13:56;17.80;99.90
24518;DHT22;12678;51.336;12.406;2023-07-31T06:16:22;17.80;99.90
24518;DHT22;12678;51.336;12.406;2023-07-31T06:18:48;17.80;99.90
24518;DHT22;12678;51.336;12.406;2023-07-31T06:21:13;17.90;99.90
24518;DHT22;12678;51.336;12.406;2023-07-31T06:23:39;18.00;99.90
24518;DHT22;12678;51.336;12.406;2023-07-31T06:26:04;18.00;99.90
24518;DHT22;12678;51.336;12.406;2023-07-31T06:28:31;18.00;99.90
24518;DHT22;12678;51.336;12.406;2023-07-31T06:31:00;18.10;99.90
24518;DHT22;12678;51.336;12.406;2023-07-31T06:33:27;18.00;99.90
24518;DHT22;12678;51.336;12.406;2023-07-31T06:35:52;18.10;99.90
24518;DHT22;12678;51.336;12.406;2023-07-31T06:38:27;18.10;99.90
24518;DHT22;12678;51.336;12.406;2023-07-31T06:40:53;18.20;99.90
24518;DHT22;12678;51.336;12.406;2023-07-31T06:43:18;18.20;99.90
24518;DHT22;12678;51.336;12.406;2023-07-31T06:45:44;18.20;99.90
24518;DHT22;12678;51.336;12.406;2023-07-31T06:48:11;18.80;99.90
24518;DHT22;12678;51.336;12.406;2023-07-31T06:50:36;19.00;99.90
24518;DHT22;12678;51.336;12.406;2023-07-31T06:53:02;18.90;99.90
24518;DHT22;12678;51.336;12.406;2023-07-31T06:55:28;18.50;99.90
24518;DHT22;12678;51.336;12.406;2023-07-31T06:57:55;18.50;99.90
24518;DHT22;12678;51.336;12.406;2023-07-31T07:00:21;18.50;99.90
24518;DHT22;12678;51.336;12.406;2023-07-31T07:02:48;18.50;99.90
24518;DHT22;12678;51.336;12.406;2023-07-31T07:05:14;18.50;99.90
24518;DHT22;12678;51.336;12.406;2023-07-31T07:07:40;18.30;99.90
24518;DHT22;12678;51.336;12.406;2023-07-31T07:10:07;18.30;99.90
24518;DHT22;12678;51.336;12.406;2023-07-31T07:12:33;18.10;99.90
24518;DHT22;12678;51.336;12.406;2023-07-31T07:14:59;18.20;99.90
24518;DHT22;12678;51.336;12.406;2023-07-31T07:17:25;18.20;99.90
24518;DHT22;12678;51.336;12.406;2023-07-31T07:19:51;18.20;99.90
24518;DHT22;12678;51.336;12.406;2023-07-31T07:22:17;18.10;99.90
24518;DHT22;12678;51.336;12.406;2023-07-31T07:24:43;18.10;99.90
24518;DHT22;12678;51.336;12.406;2023-07-31T07:27:09;18.30;99.90
24518;DHT22;12678;51.336;12.406;2023-07-31T07:29:34;18.30;99.90
24518;DHT22;12678;51.336;12.406;2023-07-31T07:32:00;18.40;99.90
24518;DHT22;12678;51.336;12.406;2023-07-31T07:34:27;18.40;99.90
24518;DHT22;12678;51.336;12.406;2023-07-31T07:36:54;18.40;99.90
24518;DHT22;12678;51.336;12.406;2023-07-31T07:39:20;18.30;99.90
24518;DHT22;12678;51.336;12.406;2023-07-31T07:41:46;18.40;99.90
24518;DHT22;12678;51.336;12.406;2023-07-31T07:44:12;18.40;99.90
24518;DHT22;12678;51.336;12.406;2023-07-31T07:46:37;18.30;99.90
24518;DHT22;12678;51.336;12.406;2023-07-31T07:49:03;18.40;99.90
24518;DHT22;12678;51.336;12.406;2023-07-31T07:51:28;18.50;99.90
24518;DHT22;12678;51.336;12.406;2023-07-31T07:53:56;18.70;99.90
24518;DHT22;12678;51.336;12.406;2023-07-31T07:56:21;18.80;99.90
24518;DHT22;12678;51.336;12.406;2023-07-31T07:58:49;19.00;99.90
24518;DHT22;12678;51.336;12.406;2023-07-31T08:01:15;19.00;99.90
24518;DHT22;12678;51.336;12.406;2023-07-31T08:03:41;19.10;99.90
24518;DHT22;12678;51.336;12.406;2023-07-31T08:06:07;19.10;99.90
24518;DHT22;12678;51.336;12.406;2023-07-31T08:08:34;19.10;99.90
24518;DHT22;12678;51.336;12.406;2023-07-31T08:11:00;19.20;99.90
24518;DHT22;12678;51.336;12.406;2023-07-31T08:13:26;19.20;99.90
24518;DHT22;12678;51.336;12.406;2023-07-31T08:15:52;19.30;99.90
24518;DHT22;12678;51.336;12.406;2023-07-31T08:18:17;19.20;99.90
24518;DHT22;12678;51.336;12.406;2023-07-31T08:20:43;19.20;99.90
24518;DHT22;12678;51.336;12.406;2023-07-31T08:23:09;19.20;99.90
24518;DHT22;12678;51.336;12.406;2023-07-31T08:25:35;19.30;99.90
24518;DHT22;12678;51.336;12.406;2023-07-31T08:28:02;19.40;99.90
24518;DHT22;12678;51.336;12.406;2023-07-31T08:30:27;19.40;99.90
24518;DHT22;12678;51.336;12.406;2023-07-31T08:32:53;19.40;99.90
24518;DHT22;12678;51.336;12.406;2023-07-31T08:35:18;19.40;99.90
24518;DHT22;12678;51.336;12.406;2023-07-31T08:37:44;19.30;99.90
24518;DHT22;12678;51.336;12.406;2023-07-31T08:40:10;19.40;99.90
24518;DHT22;12678;51.336;12.406;2023-07-31T08:42:46;19.50;99.90
24518;DHT22;12678;51.336;12.406;2023-07-31T08:45:16;19.50;99.90
24518;DHT22;12678;51.336;12.406;2023-07-31T08:47:46;19.70;99.90
24518;DHT22;12678;51.336;12.406;2023-07-31T08:50:13;19.80;99.90
24518;DHT22;12678;51.336;12.406;2023-07-31T08:52:40;19.90;99.90
24518;DHT22;12678;51.336;12.406;2023-07-31T08:55:06;19.90;99.90
24518;DHT22;12678;51.336;12.406;2023-07-31T08:57:35;20.00;99.90
24518;DHT22;12678;51.336;12.406;2023-07-31T09:00:01;20.00;99.90
24518;DHT22;12678;51.336;12.406;2023-07-31T09:02:34;20.00;99.90
24518;DHT22;12678;51.336;12.406;2023-07-31T09:05:02;20.10;99.90
24518;DHT22;12678;51.336;12.406;2023-07-31T09:07:28;19.90;99.90
24518;DHT22;12678;51.336;12.406;2023-07-31T09:09:54;19.90;99.90
24518;DHT22;12678;51.336;12.406;2023-07-31T09:12:20;19.90;99.90
24518;DHT22;12678;51.336;12.406;2023-07-31T09:14:46;19.80;99.90
24518;DHT22;12678;51.336;12.406;2023-07-31T09:17:12;19.70;99.90
24518;DHT22;12678;51.336;12.406;2023-07-31T09:19:38;19.80;99.90
24518;DHT22;12678;51.336;12.406;2023-07-31T09:22:06;19.80;99.90
24518;DHT22;12678;51.336;12.406;2023-07-31T09:24:34;19.80;99.90
24518;DHT22;12678;51.336;12.406;2023-07-31T09:27:00;19.80;99.90
24518;DHT22;12678;51.336;12.406;2023-07-31T09:29:28;19.80;99.90
24518;DHT22;12678;51.336;12.406;2023-07-31T09:31:54;19.90;99.90
24518;DHT22;12678;51.336;12.406;2023-07-31T09:34:20;20.00;99.90
24518;DHT22;12678;51.336;12.406;2023-07-31T09:36:53;20.00;99.90
24518;DHT22;12678;51.336;12.406;2023-07-31T09:39:19;20.00;99.90
24518;DHT22;12678;51.336;12.406;2023-07-31T09:41:48;20.00;99.90
24518;DHT22;12678;51.336;12.406;2023-07-31T09:44:18;20.00;99.90
24518;DHT22;12678;51.336;12.406;2023-07-31T09:46:45;20.10;99.90
24518;DHT22;12678;51.336;12.406;2023-07-31T09:49:13;20.10;99.90
24518;DHT22;12678;51.336;12.406;2023-07-31T09:51:40;20.10;99.90
24518;DHT22;12678;51.336;12.406;2023-07-31T09:54:13;20.10;99.90
24518;DHT22;12678;51.336;12.406;2023-07-31T09:56:47;20.10;99.90
24518;DHT22;12678;51.336;12.406;2023-07-31T09:59:16;20.10;99.90
24518;DHT22;12678;51.336;12.406;2023-07-31T10:01:43;20.20;99.90
24518;DHT22;12678;51.336;12.406;2023-07-31T10:04:09;20.30;99.90
24518;DHT22;12678;51.336;12.406;2023-07-31T10:06:36;20.40;99.90
24518;DHT22;12678;51.336;12.406;2023-07-31T10:09:05;20.50;99.90
24518;DHT22;12678;51.336;12.406;2023-07-31T10:11:34;20.30;99.90
24518;DHT22;12678;51.336;12.406;2023-07-31T10:14:04;20.30;99.90
24518;DHT22;12678;51.336;12.406;2023-07-31T10:16:31;20.10;99.90
24518;DHT22;12678;51.336;12.406;2023-07-31T10:18:57;20.20;99.90
24518;DHT22;12678;51.336;12.406;2023-07-31T10:21:23;20.30;99.90
24518;DHT22;12678;51.336;12.406;2023-07-31T10:23:49;20.50;99.90
24518;DHT22;12678;51.336;12.406;2023-07-31T10:26:17;20.60;99.90
24518;DHT22;12678;51.336;12.406;2023-07-31T10:28:46;20.80;99.90
24518;DHT22;12678;51.336;12.406;2023-07-31T10:31:12;20.90;99.90
24518;DHT22;12678;51.336;12.406;2023-07-31T10:33:39;20.90;99.90
24518;DHT22;12678;51.336;12.406;2023-07-31T10:36:18;21.00;99.90
24518;DHT22;12678;51.336;12.406;2023-07-31T10:38:45;21.10;99.90
24518;DHT22;12678;51.336;12.406;2023-07-31T10:41:11;21.20;99.90
24518;DHT22;12678;51.336;12.406;2023-07-31T10:43:37;21.00;99.90
24518;DHT22;12678;51.336;12.406;2023-07-31T10:46:07;20.90;99.90
24518;DHT22;12678;51.336;12.406;2023-07-31T10:48:34;21.00;99.90
24518;DHT22;12678;51.336;12.406;2023-07-31T10:51:10;21.10;99.90
24518;DHT22;12678;51.336;12.406;2023-07-31T10:53:36;21.20;99.90
24518;DHT22;12678;51.336;12.406;2023-07-31T10:56:09;21.20;99.90
24518;DHT22;12678;51.336;12.406;2023-07-31T10:58:39;21.20;99.90
24518;DHT22;12678;51.336;12.406;2023-07-31T11:01:05;21.30;99.90
24518;DHT22;12678;51.336;12.406;2023-07-31T11:03:45;21.60;99.90
24518;DHT22;12678;51.336;12.406;2023-07-31T11:06:12;21.70;99.90
24518;DHT22;12678;51.336;12.406;2023-07-31T11:08:43;21.80;99.90
24518;DHT22;12678;51.336;12.406;2023-07-31T11:11:10;21.70;99.90
24518;DHT22;12678;51.336;12.406;2023-07-31T11:13:51;21.60;99.90
24518;DHT22;12678;51.336;12.406;2023-07-31T11:16:23;21.80;99.90
24518;DHT22;12678;51.336;12.406;2023-07-31T11:18:50;21.90;99.90
24518;DHT22;12678;51.336;12.406;2023-07-31T11:21:22;22.00;99.90
24518;DHT22;12678;51.336;12.406;2023-07-31T11:23:53;22.10;99.90
24518;DHT22;12678;51.336;12.406;2023-07-31T11:26:19;22.20;99.90
24518;DHT22;12678;51.336;12.406;2023-07-31T11:28:48;22.40;99.90
24518;DHT22;12678;51.336;12.406;2023-07-31T11:31:14;22.70;99.90
24518;DHT22;12678;51.336;12.406;2023-07-31T11:33:40;22.80;99.90
24518;DHT22;12678;51.336;12.406;2023-07-31T11:36:05;22.80;99.90
24518;DHT22;12678;51.336;12.406;2023-07-31T11:38:33;22.80;99.90
24518;DHT22;12678;51.336;12.406;2023-07-31T11:41:00;22.90;99.90
24518;DHT22;12678;51.336;12.406;2023-07-31T11:43:31;23.00;99.90
24518;DHT22;12678;51.336;12.406;2023-07-31T11:46:01;23.10;99.90
24518;DHT22;12678;51.336;12.406;2023-07-31T11:48:34;23.00;99.90
24518;DHT22;12678;51.336;12.406;2023-07-31T11:51:03;22.90;99.90
24518;DHT22;12678;51.336;12.406;2023-07-31T11:54:10;22.70;99.90
24518;DHT22;12678;51.336;12.406;2023-07-31T11:56:29;22.70;99.90
24518;DHT22;12678;51.336;12.406;2023-07-31T11:58:58;22.70;99.90
24518;DHT22;12678;51.336;12.406;2023-07-31T12:01:24;22.60;99.90
24518;DHT22;12678;51.336;12.406;2023-07-31T12:03:51;22.60;99.90
24518;DHT22;12678;51.336;12.406;2023-07-31T12:06:17;22.50;99.90
24518;DHT22;12678;51.336;12.406;2023-07-31T12:08:43;22.50;99.90
24518;DHT22;12678;51.336;12.406;2023-07-31T12:11:09;22.30;99.90
24518;DHT22;12678;51.336;12.406;2023-07-31T12:13:35;22.30;99.90
24518;DHT22;12678;51.336;12.406;2023-07-31T12:16:02;22.30;99.90
24518;DHT22;12678;51.336;12.406;2023-07-31T12:18:38;22.20;99.90
24518;DHT22;12678;51.336;12.406;2023-07-31T12:21:06;22.30;99.90
24518;DHT22;12678;51.336;12.406;2023-07-31T12:23:32;22.20;99.90
24518;DHT22;12678;51.336;12.406;2023-07-31T12:28:30;22.30;99.90
24518;DHT22;12678;51.336;12.406;2023-07-31T12:31:00;22.40;99.90
24518;DHT22;12678;51.336;12.406;2023-07-31T12:33:31;22.50;99.90
24518;DHT22;12678;51.336;12.406;2023-07-31T12:35:58;22.60;99.90
24518;DHT22;12678;51.336;12.406;2023-07-31T12:38:23;22.60;99.90
24518;DHT22;12678;51.336;12.406;2023-07-31T12:40:49;22.60;99.90
24518;DHT22;12678;51.336;12.406;2023-07-31T12:43:15;22.60;99.90
24518;DHT22;12678;51.336;12.406;2023-07-31T12:45:41;22.70;99.90
24518;DHT22;12678;51.336;12.406;2023-07-31T12:48:07;22.80;99.90
24518;DHT22;12678;51.336;12.406;2023-07-31T12:50:32;22.80;99.90
24518;DHT22;12678;51.336;12.406;2023-07-31T12:52:58;22.70;99.90
24518;DHT22;12678;51.336;12.406;2023-07-31T12:55:23;22.80;99.90
24518;DHT22;12678;51.336;12.406;2023-07-31T12:57:50;22.80;99.90
24518;DHT22;12678;51.336;12.406;2023-07-31T13:00:16;22.80;99.90
24518;DHT22;12678;51.336;12.406;2023-07-31T13:02:42;22.90;99.90
24518;DHT22;12678;51.336;12.406;2023-07-31T13:05:08;22.90;99.90
24518;DHT22;12678;51.336;12.406;2023-07-31T13:07:33;23.00;99.90
24518;DHT22;12678;51.336;12.406;2023-07-31T13:09:59;23.20;99.90
24518;DHT22;12678;51.336;12.406;2023-07-31T13:12:25;23.40;99.90
24518;DHT22;12678;51.336;12.406;2023-07-31T13:14:51;23.40;99.90
24518;DHT22;12678;51.336;12.406;2023-07-31T13:17:17;23.40;99.90
24518;DHT22;12678;51.336;12.406;2023-07-31T13:19:43;23.50;99.90
24518;DHT22;12678;51.336;12.406;2023-07-31T13:22:08;23.40;99.90
24518;DHT22;12678;51.336;12.406;2023-07-31T13:24:34;23.50;99.90
24518;DHT22;12678;51.336;12.406;2023-07-31T13:26:59;23.50;99.90
24518;DHT22;12678;51.336;12.406;2023-07-31T13:29:25;23.40;99.90
24518;DHT22;12678;51.336;12.406;2023-07-31T13:31:52;23.30;99.90
24518;DHT22;12678;51.336;12.406;2023-07-31T13:34:17;23.40;99.90
24518;DHT22;12678;51.336;12.406;2023-07-31T13:36:43;23.60;99.90
24518;DHT22;12678;51.336;12.406;2023-07-31T13:39:08;23.60;99.90
24518;DHT22;12678;51.336;12.406;2023-07-31T13:41:34;23.60;99.90
24518;DHT22;12678;51.336;12.406;2023-07-31T13:44:00;23.70;99.90
24518;DHT22;12678;51.336;12.406;2023-07-31T13:46:25;23.70;99.90
24518;DHT22;12678;51.336;12.406;2023-07-31T13:48:51;23.70;99.90
24518;DHT22;12678;51.336;12.406;2023-07-31T13:51:20;23.60;99.90
24518;DHT22;12678;51.336;12.406;2023-07-31T13:53:45;23.50;99.90
24518;DHT22;12678;51.336;12.406;2023-07-31T13:56:11;23.30;99.90
24518;DHT22;12678;51.336;12.406;2023-07-31T13:58:36;23.10;99.90
24518;DHT22;12678;51.336;12.406;2023-07-31T14:01:02;23.10;99.90
24518;DHT22;12678;51.336;12.406;2023-07-31T14:03:28;23.00;99.90
24518;DHT22;12678;51.336;12.406;2023-07-31T14:05:55;22.90;99.90
24518;DHT22;12678;51.336;12.406;2023-07-31T14:08:21;22.80;99.90
24518;DHT22;12678;51.336;12.406;2023-07-31T14:10:47;22.80;99.90
24518;DHT22;12678;51.336;12.406;2023-07-31T14:13:12;22.90;99.90
24518;DHT22;12678;51.336;12.406;2023-07-31T14:15:38;22.80;99.90
24518;DHT22;12678;51.336;12.406;2023-07-31T14:18:04;22.80;99.90
24518;DHT22;12678;51.336;12.406;2023-07-31T14:20:30;22.70;99.90
24518;DHT22;12678;51.336;12.406;2023-07-31T14:22:55;22.60;99.90
24518;DHT22;12678;51.336;12.406;2023-07-31T14:25:21;22.50;99.90
24518;DHT22;12678;51.336;12.406;2023-07-31T14:27:47;22.40;99.90
24518;DHT22;12678;51.336;12.406;2023-07-31T14:30:12;22.30;99.90
24518;DHT22;12678;51.336;12.406;2023-07-31T14:32:38;22.40;99.90
24518;DHT22;12678;51.336;12.406;2023-07-31T14:35:04;22.40;99.90
24518;DHT22;12678;51.336;12.406;2023-07-31T14:37:45;22.30;99.90
24518;DHT22;12678;51.336;12.406;2023-07-31T14:40:11;22.30;99.90
24518;DHT22;12678;51.336;12.406;2023-07-31T14:42:38;22.30;99.90
24518;DHT22;12678;51.336;12.406;2023-07-31T14:45:05;22.30;99.90
24518;DHT22;12678;51.336;12.406;2023-07-31T14:47:31;22.40;99.90
24518;DHT22;12678;51.336;12.406;2023-07-31T14:49:57;22.60;99.90
24518;DHT22;12678;51.336;12.406;2023-07-31T14:52:23;22.60;99.90
24518;DHT22;12678;51.336;12.406;2023-07-31T14:54:49;22.60;99.90
24518;DHT22;12678;51.336;12.406;2023-07-31T14:57:14;22.60;99.90
24518;DHT22;12678;51.336;12.406;2023-07-31T14:59:40;22.60;99.90
24518;DHT22;12678;51.336;12.406;2023-07-31T15:02:06;22.50;99.90
24518;DHT22;12678;51.336;12.406;2023-07-31T15:04:33;22.40;99.90
24518;DHT22;12678;51.336;12.406;2023-07-31T15:06:59;22.40;99.90
24518;DHT22;12678;51.336;12.406;2023-07-31T15:09:24;22.30;99.90
24518;DHT22;12678;51.336;12.406;2023-07-31T15:11:50;22.30;99.90
24518;DHT22;12678;51.336;12.406;2023-07-31T15:14:15;22.30;99.90
24518;DHT22;12678;51.336;12.406;2023-07-31T15:16:41;22.20;99.90
24518;DHT22;12678;51.336;12.406;2023-07-31T15:19:06;22.30;99.90
24518;DHT22;12678;51.336;12.406;2023-07-31T15:21:32;22.30;99.90